Time;durP1;ratioP1;P1;durP2;ratioP2;P2;SDS_P1;SDS_P2;PMS_P1;PMS_P2;Temp;Humidity;BMP_temperature;BMP_pressure;BME280_temperature;BME280_humidity;BME280_pressure;Samples;Min_cycle;Max_cycle;Signal;HPM_P1;HPM_P2
2022/08/17 00:00:47;;;;;;;5.43;2.90;;;;;;;24.31;100.00;100798.56;2055807;28;20210;-68
2022/08/17 00:01:49;;;;;;;4.97;3.03;;;;;;;23.96;100.00;100736.19;2056320;28;20283;-68
2022/08/17 00:02:59;;;;;;;6.40;2.90;;;;;;;24.38;100.00;100791.56;2056333;28;20195;-67
2022/08/17 00:04:00;;;;;;;8.10;3.57;;;;;;;24.40;100.00;100791.81;2055657;28;20187;-68
2022/08/17 00:05:00;;;;;;;4.63;3.23;;;;;;;24.43;100.00;100787.94;2063168;28;20194;-68
2022/08/17 00:06:10;;;;;;;4.87;3.40;;;;;;;24.27;100.00;100772.59;2063517;28;20249;-68
2022/08/17 00:07:11;;;;;;;5.07;2.90;;;;;;;24.46;100.00;100790.50;2055528;28;20274;-68
2022/08/17 00:08:14;;;;;;;3.63;2.93;;;;;;;24.44;100.00;100780.97;2054541;28;20194;-68
2022/08/17 00:09:16;;;;;;;4.93;2.80;;;;;;;24.50;100.00;100795.88;2056123;28;20692;-67
2022/08/17 00:10:16;;;;;;;6.30;2.90;;;;;;;24.42;100.00;100787.16;2055966;28;20697;-68
2022/08/17 00:11:22;;;;;;;5.27;3.23;;;;;;;24.46;100.00;100795.41;2056229;28;20607;-67
2022/08/17 00:12:22;;;;;;;5.40;3.20;;;;;;;24.43;100.00;100777.38;2056527;28;20202;-68
2022/08/17 00:13:51;;;;;;;7.87;3.30;;;;;;;24.58;100.00;100797.69;2053439;28;20277;-68
2022/08/17 00:14:52;;;;;;;6.27;3.10;;;;;;;24.56;100.00;100794.56;2050690;28;20179;-68
2022/08/17 00:15:57;;;;;;;5.30;3.20;;;;;;;24.58;100.00;100794.84;2055464;28;20214;-68
2022/08/17 00:16:57;;;;;;;4.80;2.90;;;;;;;24.16;100.00;100738.66;2055282;28;20199;-68
2022/08/17 00:17:58;;;;;;;5.40;3.20;;;;;;;24.64;100.00;100797.63;2055687;28;20380;-68
2022/08/17 00:19:01;;;;;;;5.53;2.80;;;;;;;24.66;100.00;100797.88;2056194;28;20205;-68
2022/08/17 00:20:02;;;;;;;4.47;2.90;;;;;;;24.69;100.00;100791.94;2060212;28;20229;-68
2022/08/17 00:21:06;;;;;;;4.40;3.20;;;;;;;24.70;100.00;100798.34;2063707;28;20565;-68
2022/08/17 00:22:06;;;;;;;6.20;3.40;;;;;;;24.30;100.00;100734.72;2064374;28;20240;-68
2022/08/17 00:23:10;;;;;;;3.70;2.80;;;;;;;24.77;100.00;100792.88;2064076;28;20265;-68
2022/08/17 00:24:11;;;;;;;7.03;2.87;;;;;;;24.75;100.00;100789.03;2063999;28;20187;-68
2022/08/17 00:25:16;;;;;;;5.30;3.03;;;;;;;24.65;100.00;100785.00;2063328;28;20456;-68
2022/08/17 00:26:18;;;;;;;6.33;3.07;;;;;;;24.78;100.00;100785.16;2056459;28;20269;-67
2022/08/17 00:27:18;;;;;;;4.47;2.90;;;;;;;24.29;100.00;100727.53;2056128;28;20191;-68
2022/08/17 00:28:20;;;;;;;5.30;3.00;;;;;;;24.73;100.00;100788.81;2053578;28;20520;-68
2022/08/17 00:29:20;;;;;;;4.73;2.90;;;;;;;24.78;100.00;100788.75;2065651;28;20182;-68
2022/08/17 00:30:21;;;;;;;4.57;3.00;;;;;;;24.68;100.00;100779.06;2065211;28;20690;-68
2022/08/17 00:31:22;;;;;;;3.53;2.60;;;;;;;24.79;100.00;100795.19;2062870;28;20202;-68
2022/08/17 00:32:22;;;;;;;5.10;3.10;;;;;;;24.79;100.00;100798.03;2057720;28;20194;-68
2022/08/17 00:33:26;;;;;;;6.70;3.00;;;;;;;24.75;100.00;100801.16;2057600;28;20217;-68
2022/08/17 00:34:26;;;;;;;4.60;2.80;;;;;;;24.75;100.00;100803.22;2063129;28;20189;-68
2022/08/17 00:35:27;;;;;;;3.50;2.73;;;;;;;24.36;100.00;100731.84;2056544;28;20199;-68
2022/08/17 00:36:27;;;;;;;6.13;3.20;;;;;;;24.83;100.00;100799.28;2063677;28;20186;-68
2022/08/17 00:37:28;;;;;;;6.57;2.80;;;;;;;24.62;100.00;100766.22;2060631;28;20296;-68
2022/08/17 00:38:28;;;;;;;5.50;2.90;;;;;;;24.34;100.00;100717.44;2065813;28;20640;-68
2022/08/17 00:39:29;;;;;;;7.77;3.13;;;;;;;24.82;100.00;100794.16;2065546;28;20198;-68
2022/08/17 00:40:30;;;;;;;4.40;2.83;;;;;;;24.82;100.00;100788.50;2068925;28;20247;-68
2022/08/17 00:41:31;;;;;;;5.07;3.00;;;;;;;24.80;100.00;100785.41;2072400;28;20192;-68
2022/08/17 00:42:31;;;;;;;6.57;2.77;;;;;;;24.60;100.00;100763.13;2057467;28;20272;-67
2022/08/17 00:43:38;;;;;;;6.43;3.00;;;;;;;24.75;100.00;100791.88;2073297;28;20228;-67
2022/08/17 00:44:39;;;;;;;4.70;2.73;;;;;;;23.78;100.00;100642.59;2065667;28;20229;-68
2022/08/17 00:45:40;;;;;;;4.43;2.73;;;;;;;24.68;100.00;100790.41;2064323;28;20256;-68
2022/08/17 00:46:42;;;;;;;4.07;2.70;;;;;;;24.68;100.00;100779.06;2062097;28;20604;-68
2022/08/17 00:47:43;;;;;;;5.83;2.83;;;;;;;24.70;100.00;100784.19;2059828;28;20198;-68
2022/08/17 00:48:44;;;;;;;5.10;2.80;;;;;;;24.35;100.00;100735.97;2065609;28;20280;-68
2022/08/17 00:49:44;;;;;;;7.83;3.33;;;;;;;24.75;100.00;100786.19;2065509;28;20719;-68
2022/08/17 00:51:22;;;;;;;5.27;2.90;;;;;;;24.73;100.00;100780.31;2066879;28;20197;-68
2022/08/17 00:52:31;;;;;;;5.83;3.00;;;;;;;24.69;100.00;100783.44;2070879;28;20186;-68
2022/08/17 00:53:35;;;;;;;6.20;3.20;;;;;;;24.70;100.00;100787.00;2067723;28;20198;-68
2022/08/17 00:54:38;;;;;;;6.90;3.20;;;;;;;24.66;100.00;100769.53;2065296;28;20182;-68
2022/08/17 00:55:39;;;;;;;5.73;3.07;;;;;;;24.74;100.00;100785.44;2063615;28;20202;-68
2022/08/17 00:56:46;;;;;;;5.23;2.70;;;;;;;24.73;100.00;100783.13;2065051;28;20207;-67
2022/08/17 00:57:50;;;;;;;4.53;2.60;;;;;;;24.78;100.00;100782.34;2071649;28;20217;-68
2022/08/17 00:58:53;;;;;;;4.30;3.00;;;;;;;24.78;100.00;100783.09;2070513;28;20184;-68
2022/08/17 00:59:59;;;;;;;5.20;2.83;;;;;;;24.73;100.00;100781.09;2063294;28;20178;-68
2022/08/17 01:01:02;;;;;;;5.23;2.83;;;;;;;24.71;100.00;100783.66;2064882;28;20158;-67
2022/08/17 01:02:05;;;;;;;6.70;2.97;;;;;;;24.75;100.00;100778.47;2065454;28;20178;-68
2022/08/17 01:03:10;;;;;;;5.87;3.30;;;;;;;24.79;100.00;100787.47;2065633;28;20613;-68
2022/08/17 01:04:12;;;;;;;6.17;2.60;;;;;;;24.66;100.00;100767.47;2066934;28;20547;-67
2022/08/17 01:05:19;;;;;;;6.37;2.60;;;;;;;24.82;100.00;100786.41;2072468;28;20193;-69
2022/08/17 01:06:22;;;;;;;3.83;2.70;;;;;;;24.83;100.00;100779.44;2063962;28;20249;-67
2022/08/17 01:07:25;;;;;;;4.93;2.60;;;;;;;24.62;100.00;100755.63;2064303;28;20651;-68
2022/08/17 01:08:28;;;;;;;6.10;2.93;;;;;;;24.39;100.00;100722.28;2073581;28;20644;-68
2022/08/17 01:09:30;;;;;;;5.63;2.90;;;;;;;24.31;100.00;100699.44;2073465;28;20220;-68
2022/08/17 01:10:43;;;;;;;5.57;3.10;;;;;;;24.85;100.00;100784.59;2069062;28;20187;-68
2022/08/17 01:11:47;;;;;;;3.57;2.90;;;;;;;24.84;100.00;100788.72;2065242;28;20194;-68
2022/08/17 01:12:48;;;;;;;3.77;2.40;;;;;;;24.48;100.00;100730.47;2069219;28;20197;-68
2022/08/17 01:13:48;;;;;;;6.27;2.80;;;;;;;24.88;100.00;100797.72;2073197;28;20201;-68
2022/08/17 01:14:49;;;;;;;5.40;2.80;;;;;;;24.69;100.00;100772.09;2072798;28;20186;-68
2022/08/17 01:16:00;;;;;;;4.40;2.83;;;;;;;24.81;100.00;100801.09;2072169;28;20196;-67
2022/08/17 01:17:00;;;;;;;4.47;2.70;;;;;;;24.82;100.00;100785.66;2065348;28;20253;-68
2022/08/17 01:18:04;;;;;;;4.97;2.80;;;;;;;24.83;100.00;100790.03;2064888;28;20199;-68
2022/08/17 01:19:11;;;;;;;3.67;2.63;;;;;;;24.49;100.00;100744.13;2065669;28;20575;-68
2022/08/17 01:20:12;;;;;;;6.57;2.57;;;;;;;24.37;100.00;100725.66;2065055;28;20606;-68
2022/08/17 01:21:42;;;;;;;6.40;3.30;;;;;;;24.82;100.00;100797.75;2072358;28;20189;-67
2022/08/17 01:22:43;;;;;;;7.20;3.17;;;;;;;24.86;100.00;100792.56;2060217;28;20252;-68
2022/08/17 01:23:43;;;;;;;6.17;2.77;;;;;;;24.57;100.00;100756.41;2065195;28;20225;-67
2022/08/17 01:24:49;;;;;;;4.30;2.80;;;;;;;24.32;100.00;100720.03;2072914;28;20207;-68
2022/08/17 01:26:00;;;;;;;8.13;2.90;;;;;;;24.77;100.00;100794.97;2072303;28;20288;-68
2022/08/17 01:27:01;;;;;;;4.60;2.70;;;;;;;24.73;100.00;100795.25;2065762;28;20246;-69
2022/08/17 01:28:04;;;;;;;5.03;2.50;;;;;;;24.70;100.00;100798.34;2065126;28;20210;-68
2022/08/17 01:29:06;;;;;;;6.93;2.73;;;;;;;24.69;100.00;100786.25;2064987;28;20301;-68
2022/08/17 01:30:09;;;;;;;5.10;2.90;;;;;;;24.70;100.00;100784.19;2064962;28;20239;-68
2022/08/17 01:31:11;;;;;;;4.33;3.00;;;;;;;24.58;100.00;100766.50;2069253;28;20656;-68
2022/08/17 01:32:11;;;;;;;4.40;2.50;;;;;;;24.69;100.00;100777.75;2070373;28;20285;-68
2022/08/17 01:33:12;;;;;;;5.67;3.00;;;;;;;24.67;100.00;100777.50;2067183;28;20189;-67
2022/08/17 01:34:15;;;;;;;5.90;2.80;;;;;;;24.72;100.00;100779.53;2073061;28;20206;-68
2022/08/17 01:35:15;;;;;;;3.83;2.80;;;;;;;24.34;100.00;100715.38;2063583;28;20194;-68
2022/08/17 01:36:16;;;;;;;6.60;2.83;;;;;;;24.57;100.00;100759.25;2060558;28;20183;-68
2022/08/17 01:37:18;;;;;;;3.93;2.70;;;;;;;24.67;100.00;100771.84;2063864;28;20208;-68
2022/08/17 01:38:19;;;;;;;3.30;2.67;;;;;;;24.71;100.00;100778.00;2064334;28;20341;-67
2022/08/17 01:39:31;;;;;;;4.93;2.70;;;;;;;24.70;100.00;100773.63;2072564;28;20189;-68
2022/08/17 01:40:42;;;;;;;6.80;3.00;;;;;;;24.63;100.00;100776.25;2072590;28;20193;-68
2022/08/17 01:41:45;;;;;;;5.47;2.60;;;;;;;24.64;100.00;100777.78;2064386;28;20198;-68
2022/08/17 01:42:59;;;;;;;4.83;2.93;;;;;;;24.60;100.00;100780.91;2064806;28;20182;-68
2022/08/17 01:44:02;;;;;;;4.97;2.77;;;;;;;24.34;100.00;100738.03;2073181;28;20192;-68
2022/08/17 01:45:12;;;;;;;4.70;2.90;;;;;;;24.67;100.00;100779.59;2063720;28;20588;-67
2022/08/17 01:46:21;;;;;;;8.00;3.27;;;;;;;24.61;100.00;100781.69;2064613;28;20198;-68
2022/08/17 01:47:22;;;;;;;7.00;3.53;;;;;;;24.59;100.00;100787.88;2073201;28;20197;-68
2022/08/17 01:48:22;;;;;;;8.03;3.60;;;;;;;24.53;100.00;100778.63;2073228;28;20697;-68
2022/08/17 01:49:23;;;;;;;4.90;2.90;;;;;;;24.55;100.00;100790.19;2069687;28;20202;-67
2022/08/17 01:50:29;;;;;;;6.53;3.10;;;;;;;24.57;100.00;100784.00;2066178;28;20673;-68
2022/08/17 01:51:31;;;;;;;4.83;2.90;;;;;;;24.53;100.00;100781.44;2071746;28;20166;-68
2022/08/17 01:52:32;;;;;;;5.10;3.00;;;;;;;24.16;100.00;100720.91;2069134;28;20197;-67
2022/08/17 01:53:40;;;;;;;5.03;3.13;;;;;;;24.22;100.00;100730.91;2064718;28;20221;-68
2022/08/17 01:54:45;;;;;;;6.13;3.13;;;;;;;24.57;100.00;100790.41;2049726;28;20196;-68
2022/08/17 01:56:07;;;;;;;6.30;2.90;;;;;;;24.50;100.00;100778.88;2062419;28;20738;-68
2022/08/17 01:57:09;;;;;;;4.50;2.90;;;;;;;24.24;100.00;100745.31;2065668;28;20178;-68
2022/08/17 01:58:10;;;;;;;5.20;3.07;;;;;;;24.44;100.00;100780.97;2079479;28;20201;-68
2022/08/17 01:59:11;;;;;;;4.47;2.63;;;;;;;24.44;100.00;100783.81;2073346;28;20193;-68
2022/08/17 02:00:13;;;;;;;7.00;3.30;;;;;;;24.42;100.00;100783.56;2064916;28;20194;-68
2022/08/17 02:01:17;;;;;;;6.20;3.07;;;;;;;24.42;100.00;100787.16;2056178;28;20217;-68
2022/08/17 02:02:18;;;;;;;4.60;2.87;;;;;;;24.28;100.00;100770.50;2062176;28;20182;-68
2022/08/17 02:03:21;;;;;;;6.00;3.50;;;;;;;24.42;100.00;100780.75;2073058;28;20256;-68
2022/08/17 02:04:21;;;;;;;4.77;2.97;;;;;;;24.02;100.00;100725.63;2072635;28;20197;-68
2022/08/17 02:05:22;;;;;;;5.97;3.10;;;;;;;24.41;100.00;100787.72;2069825;28;20181;-68
2022/08/17 02:06:22;;;;;;;5.70;3.27;;;;;;;24.39;100.00;100788.22;2065120;28;20178;-68
2022/08/17 02:07:23;;;;;;;6.20;2.70;;;;;;;24.28;100.00;100765.63;2072787;28;20661;-68
2022/08/17 02:08:24;;;;;;;8.50;3.33;;;;;;;24.33;100.00;100783.88;2073335;28;20188;-68
2022/08/17 02:09:27;;;;;;;5.57;2.87;;;;;;;24.29;100.00;100789.81;2066035;28;20205;-68
2022/08/17 02:10:28;;;;;;;5.03;3.13;;;;;;;24.27;100.00;100780.31;2070213;28;20224;-68
2022/08/17 02:11:31;;;;;;;6.50;3.10;;;;;;;24.29;100.00;100783.38;2067458;28;20187;-67
2022/08/17 02:12:31;;;;;;;5.07;3.23;;;;;;;24.13;100.00;100770.06;2060742;28;20237;-68
2022/08/17 02:13:32;;;;;;;5.73;3.30;;;;;;;24.21;100.00;100791.66;2060939;28;20201;-68
2022/08/17 02:14:32;;;;;;;7.73;3.40;;;;;;;24.19;100.00;100791.41;2064520;28;20187;-68
2022/08/17 02:15:33;;;;;;;6.53;3.47;;;;;;;23.91;100.00;100753.19;2063637;28;20188;-68
2022/08/17 02:16:37;;;;;;;6.80;3.17;;;;;;;24.14;100.00;100788.59;2068532;28;20189;-68
2022/08/17 02:17:39;;;;;;;6.87;3.80;;;;;;;24.00;100.00;100761.41;2056295;28;20238;-68
2022/08/17 02:18:40;;;;;;;7.07;3.63;;;;;;;24.08;100.00;100794.31;2064238;28;20182;-68
2022/08/17 02:19:40;;;;;;;10.17;3.60;;;;;;;24.07;100.00;100789.16;2073057;28;20272;-68
2022/08/17 02:20:41;;;;;;;8.80;3.50;;;;;;;23.69;100.00;100730.63;2071968;28;20208;-69
2022/08/17 02:21:44;;;;;;;9.73;3.80;;;;;;;24.07;100.00;100775.00;2059557;28;20297;-68
2022/08/17 02:22:46;;;;;;;12.37;3.53;;;;;;;24.05;100.00;100786.09;2060332;28;20652;-68
2022/08/17 02:23:48;;;;;;;11.50;3.80;;;;;;;24.04;100.00;100790.19;2060918;28;20211;-68
2022/08/17 02:24:48;;;;;;;9.17;3.57;;;;;;;23.51;100.00;100705.75;2055966;28;20286;-68
2022/08/17 02:25:49;;;;;;;9.50;3.70;;;;;;;23.31;100.00;100683.44;2064413;28;20186;-68
2022/08/17 02:26:50;;;;;;;10.37;3.70;;;;;;;23.72;100.00;100738.84;2072971;28;20606;-69
2022/08/17 02:27:50;;;;;;;10.87;3.77;;;;;;;23.99;100.00;100783.28;2072783;28;20209;-68
2022/08/17 02:28:51;;;;;;;8.83;3.67;;;;;;;23.96;100.00;100783.53;2072286;28;20209;-68
2022/08/17 02:29:51;;;;;;;5.63;3.53;;;;;;;23.55;100.00;100726.03;2073008;28;20205;-68
2022/08/17 02:30:52;;;;;;;7.93;3.33;;;;;;;23.90;100.00;100788.47;2072209;28;20225;-68
2022/08/17 02:31:52;;;;;;;10.67;3.53;;;;;;;23.55;100.00;100738.13;2072474;28;20201;-68
2022/08/17 02:32:53;;;;;;;5.23;3.73;;;;;;;23.78;100.00;100775.59;2072585;28;20189;-67
2022/08/17 02:33:54;;;;;;;8.27;3.70;;;;;;;23.62;100.00;100748.91;2072617;28;20218;-68
2022/08/17 02:34:59;;;;;;;8.10;3.90;;;;;;;23.87;100.00;100786.63;2072435;28;20256;-67
2022/08/17 02:35:59;;;;;;;9.67;3.80;;;;;;;23.83;100.00;100798.22;2072094;28;20177;-68
2022/08/17 02:37:00;;;;;;;9.20;3.60;;;;;;;23.78;100.00;100781.25;2065151;28;20197;-68
2022/08/17 02:38:00;;;;;;;7.70;3.40;;;;;;;23.76;100.00;100795.94;2065557;28;20318;-69
2022/08/17 02:39:06;;;;;;;4.33;3.00;;;;;;;23.73;100.00;100782.81;2059459;28;20194;-68
2022/08/17 02:40:08;;;;;;;7.10;3.40;;;;;;;23.73;100.00;100787.69;2057097;28;20219;-68
2022/08/17 02:41:08;;;;;;;5.47;3.10;;;;;;;23.76;100.00;100786.69;2064422;28;20285;-68
2022/08/17 02:42:09;;;;;;;6.73;3.40;;;;;;;23.55;100.00;100757.16;2064092;28;20675;-68
2022/08/17 02:43:09;;;;;;;4.70;3.30;;;;;;;23.68;100.00;100792.09;2062809;28;20186;-67
2022/08/17 02:44:10;;;;;;;10.37;4.17;;;;;;;23.72;100.00;100786.16;2056378;28;20186;-68
2022/08/17 02:45:15;;;;;;;4.63;3.00;;;;;;;23.72;100.00;100789.78;2056261;28;20190;-68
2022/08/17 02:46:15;;;;;;;8.87;3.57;;;;;;;23.43;100.00;100750.75;2047312;28;20189;-68
2022/08/17 02:47:16;;;;;;;6.93;3.70;;;;;;;23.62;100.00;100780.03;2040068;29;20215;-68
2022/08/17 02:48:16;;;;;;;5.33;3.20;;;;;;;23.70;100.00;100797.25;2053906;28;20233;-68
2022/08/17 02:49:16;;;;;;;8.63;3.90;;;;;;;23.12;100.00;100722.78;2056432;28;20190;-68
2022/08/17 02:50:21;;;;;;;7.13;3.23;;;;;;;23.55;100.00;100794.69;2059765;28;20194;-68
2022/08/17 02:51:22;;;;;;;6.57;3.63;;;;;;;23.58;100.00;100790.06;2061561;28;20311;-67
2022/08/17 02:52:24;;;;;;;6.20;3.27;;;;;;;23.53;100.00;100790.84;2057009;28;20229;-67
2022/08/17 02:53:25;;;;;;;5.93;3.17;;;;;;;23.28;100.00;100752.34;2057398;28;20206;-68
2022/08/17 02:54:25;;;;;;;6.33;3.07;;;;;;;23.50;100.00;100789.81;2064691;28;20182;-68
2022/08/17 02:55:29;;;;;;;4.87;3.00;;;;;;;23.52;100.00;100790.09;2055431;28;20223;-68
2022/08/17 02:56:30;;;;;;;8.50;3.67;;;;;;;23.50;100.00;100786.22;2063348;28;20256;-68
2022/08/17 02:57:30;;;;;;;5.80;3.40;;;;;;;23.18;100.00;100728.47;2064452;28;20175;-68
2022/08/17 02:58:31;;;;;;;5.87;3.20;;;;;;;23.26;100.00;100754.91;2059628;28;20661;-68
2022/08/17 02:59:31;;;;;;;5.67;3.23;;;;;;;23.31;100.00;100748.47;2056574;28;20198;-67
2022/08/17 03:00:36;;;;;;;7.87;3.40;;;;;;;23.61;100.00;100795.47;2058978;28;20198;-68
2022/08/17 03:01:36;;;;;;;7.77;3.07;;;;;;;23.24;100.00;100749.00;2062113;28;20182;-68
2022/08/17 03:02:42;;;;;;;9.07;3.33;;;;;;;23.60;100.00;100798.81;2056224;28;20252;-68
2022/08/17 03:03:42;;;;;;;6.27;3.37;;;;;;;23.57;100.00;100797.78;2063697;28;20574;-68
2022/08/17 03:04:43;;;;;;;5.57;3.33;;;;;;;23.58;100.00;100798.53;2063999;28;20512;-67
2022/08/17 03:05:46;;;;;;;7.60;3.20;;;;;;;23.59;100.00;100789.53;2057820;28;20657;-68
2022/08/17 03:06:47;;;;;;;6.17;3.03;;;;;;;23.07;100.00;100720.72;2056416;28;20183;-68
2022/08/17 03:07:48;;;;;;;4.80;3.10;;;;;;;23.57;100.00;100794.19;2056489;28;20501;-68
2022/08/17 03:08:48;;;;;;;7.67;2.87;;;;;;;23.34;100.00;100764.41;2066141;28;20190;-68
2022/08/17 03:09:49;;;;;;;6.00;2.90;;;;;;;23.63;100.00;100797.75;2071963;28;20178;-68
2022/08/17 03:10:49;;;;;;;6.53;3.43;;;;;;;23.58;100.00;100790.84;2063949;28;20178;-68
2022/08/17 03:11:50;;;;;;;6.47;3.20;;;;;;;23.61;100.00;100800.34;2056828;28;20175;-67
2022/08/17 03:12:51;;;;;;;5.83;3.17;;;;;;;23.62;100.00;100793.41;2063600;28;20217;-68
2022/08/17 03:13:52;;;;;;;6.10;3.33;;;;;;;23.62;100.00;100797.00;2057860;28;20566;-68
2022/08/17 03:14:52;;;;;;;6.83;3.53;;;;;;;22.99;100.00;100705.59;2060621;28;20211;-68
2022/08/17 03:15:53;;;;;;;5.20;3.13;;;;;;;23.63;100.00;100803.41;2063739;28;20186;-68
2022/08/17 03:16:53;;;;;;;5.90;3.03;;;;;;;23.64;100.00;100799.31;2063961;28;20688;-68
2022/08/17 03:17:55;;;;;;;6.77;2.97;;;;;;;23.63;100.00;100797.75;2064311;28;20205;-68
2022/08/17 03:18:56;;;;;;;6.37;3.17;;;;;;;23.58;100.00;100779.53;2063834;28;20178;-68
2022/08/17 03:19:57;;;;;;;7.20;3.70;;;;;;;23.30;100.00;100738.44;2056796;28;20311;-68
2022/08/17 03:21:02;;;;;;;8.60;3.50;;;;;;;23.13;100.00;100723.56;2063273;28;20288;-67
2022/08/17 03:22:07;;;;;;;5.83;3.10;;;;;;;23.69;100.00;100812.69;2070855;28;20212;-68
2022/08/17 03:23:08;;;;;;;7.80;3.00;;;;;;;23.33;100.00;100757.97;2064230;28;20581;-68
2022/08/17 03:24:09;;;;;;;6.13;2.90;;;;;;;23.21;100.00;100738.72;2063729;28;20193;-68
2022/08/17 03:25:12;;;;;;;7.47;3.43;;;;;;;23.76;100.00;100815.75;2055133;28;20241;-68
2022/08/17 03:26:14;;;;;;;5.07;3.10;;;;;;;23.70;100.00;100811.41;2051335;28;20656;-68
2022/08/17 03:27:14;;;;;;;7.07;3.40;;;;;;;23.04;100.00;100706.84;2056133;28;20206;-67
2022/08/17 03:28:16;;;;;;;6.00;3.30;;;;;;;23.70;100.00;100814.97;2058550;28;20261;-67
2022/08/17 03:29:18;;;;;;;6.43;3.13;;;;;;;23.72;100.00;100811.63;2064397;28;20174;-67
2022/08/17 03:30:21;;;;;;;13.77;3.90;;;;;;;23.65;100.00;100806.50;2064055;28;20654;-68
2022/08/17 03:31:21;;;;;;;5.97;3.00;;;;;;;23.21;100.00;100744.38;2056658;28;20182;-68
2022/08/17 03:32:22;;;;;;;5.80;3.10;;;;;;;23.18;100.00;100751.81;2055000;28;20199;-68
2022/08/17 03:33:22;;;;;;;7.47;3.23;;;;;;;23.70;100.00;100811.41;2055825;28;20194;-68
2022/08/17 03:34:23;;;;;;;7.23;3.50;;;;;;;23.69;100.00;100813.44;2058573;28;20202;-68
2022/08/17 03:35:26;;;;;;;8.10;3.77;;;;;;;23.21;100.00;100747.19;2055519;28;20198;-67
2022/08/17 03:36:27;;;;;;;7.40;3.50;;;;;;;23.68;100.00;100809.06;2058626;28;20238;-68
2022/08/17 03:37:27;;;;;;;7.87;3.70;;;;;;;23.70;100.00;100814.97;2058097;28;20187;-67
2022/08/17 03:38:28;;;;;;;13.43;3.93;;;;;;;23.18;100.00;100736.94;2063107;28;20303;-68
2022/08/17 03:39:28;;;;;;;5.90;3.03;;;;;;;23.68;100.00;100817.56;2056120;28;20214;-68
2022/08/17 03:40:30;;;;;;;9.50;3.90;;;;;;;23.70;100.00;100819.88;2059465;28;20182;-68
2022/08/17 03:41:31;;;;;;;8.13;3.80;;;;;;;23.69;100.00;100818.34;2056973;28;20258;-68
2022/08/17 03:42:32;;;;;;;8.47;3.70;;;;;;;23.71;100.00;100815.75;2062183;28;20668;-68
2022/08/17 03:43:33;;;;;;;6.90;3.20;;;;;;;23.35;100.00;100763.91;2058890;28;20254;-68
2022/08/17 03:44:34;;;;;;;12.30;4.10;;;;;;;23.73;100.00;100824.47;2059351;28;20746;-68
2022/08/17 03:57:26;;;;;;;9.93;3.50;;;;;;;23.71;100.00;100827.06;2057715;28;20461;-67
2022/08/17 03:58:27;;;;;;;6.47;3.20;;;;;;;23.73;100.00;100830.16;2055942;28;20448;-68
2022/08/17 03:59:28;;;;;;;6.10;3.10;;;;;;;23.75;100.00;100824.75;2055996;28;20970;-68
2022/08/17 04:00:28;;;;;;;8.50;3.77;;;;;;;23.60;100.00;100804.47;2055404;28;20598;-68
2022/08/17 04:01:29;;;;;;;8.50;3.60;;;;;;;23.13;100.00;100729.97;2051700;28;20689;-67
2022/08/17 04:02:31;;;;;;;7.20;3.90;;;;;;;23.78;100.00;100830.16;2064343;28;20178;-68
2022/08/17 04:03:32;;;;;;;9.53;4.20;;;;;;;23.56;100.00;100806.78;2065498;28;20269;-68
2022/08/17 04:04:32;;;;;;;7.33;3.83;;;;;;;23.74;100.00;100843.78;2061650;28;20201;-67
2022/08/17 04:05:33;;;;;;;6.80;3.47;;;;;;;23.50;100.00;100812.44;2056769;28;20205;-68
2022/08/17 04:06:33;;;;;;;6.57;3.23;;;;;;;23.76;100.00;100838.38;2053982;28;20210;-68
2022/08/17 04:07:34;;;;;;;12.23;3.60;;;;;;;23.74;100.00;100837.38;2056590;28;20246;-67
2022/08/17 04:08:34;;;;;;;7.57;3.70;;;;;;;23.75;100.00;100836.81;2065352;28;20244;-68
2022/08/17 04:09:35;;;;;;;12.30;4.00;;;;;;;23.74;100.00;100840.94;2062955;28;20185;-68
2022/08/17 04:10:36;;;;;;;8.47;3.80;;;;;;;23.75;100.00;100845.31;2056788;28;20365;-67
2022/08/17 04:11:38;;;;;;;5.80;3.50;;;;;;;23.74;100.00;100843.78;2057241;28;20203;-68
2022/08/17 04:12:45;;;;;;;8.00;3.43;;;;;;;23.30;100.00;100772.38;2057525;28;20497;-68
2022/08/17 04:13:46;;;;;;;7.13;3.60;;;;;;;23.72;100.00;100843.53;2057318;28;20453;-68
2022/08/17 04:14:47;;;;;;;6.20;3.30;;;;;;;23.73;100.00;100852.78;2064210;28;20859;-67
2022/08/17 04:15:48;;;;;;;6.53;3.20;;;;;;;23.75;100.00;100842.50;2057816;28;20198;-67
2022/08/17 04:16:49;;;;;;;4.37;3.00;;;;;;;23.80;100.00;100840.94;2063382;28;20201;-67
2022/08/17 04:17:50;;;;;;;6.53;3.30;;;;;;;23.83;100.00;100842.72;2055988;28;20473;-68
2022/08/17 04:18:51;;;;;;;5.80;3.30;;;;;;;23.86;100.00;100847.38;2056802;28;20199;-68
2022/08/17 04:19:52;;;;;;;4.17;3.00;;;;;;;23.87;100.00;100843.25;2059202;28;20947;-68
2022/08/17 04:20:53;;;;;;;6.93;3.40;;;;;;;23.89;100.00;100844.28;2063516;28;20178;-68
2022/08/17 04:21:53;;;;;;;6.87;3.57;;;;;;;23.91;100.00;100849.44;2048874;29;20469;-69
2022/08/17 04:23:08;;;;;;;5.97;3.30;;;;;;;23.95;100.00;100847.88;2048767;29;20259;-67
2022/08/17 04:24:08;;;;;;;6.57;3.20;;;;;;;23.97;100.00;100844.53;2057396;28;20167;-68
2022/08/17 04:25:15;;;;;;;5.97;3.00;;;;;;;23.96;100.00;100852.22;2064228;28;20441;-68
2022/08/17 04:26:15;;;;;;;8.67;3.23;;;;;;;24.00;100.00;100847.09;2064355;28;20194;-68
2022/08/17 04:27:16;;;;;;;4.60;3.23;;;;;;;24.02;100.00;100852.22;2062214;28;20203;-68
2022/08/17 04:28:18;;;;;;;6.90;3.20;;;;;;;24.07;100.00;100846.56;2056181;28;20206;-68
2022/08/17 04:29:19;;;;;;;5.87;3.20;;;;;;;23.73;100.00;100808.28;2060939;28;20704;-68
2022/08/17 04:30:20;;;;;;;8.20;3.20;;;;;;;23.52;100.00;100739.16;2056755;28;20598;-67
2022/08/17 04:31:21;;;;;;;6.87;3.50;;;;;;;23.91;100.00;100804.91;2059284;28;20177;-68
2022/08/17 04:32:22;;;;;;;5.77;3.20;;;;;;;24.22;100.00;100846.25;2065164;28;20186;-68
2022/08/17 04:33:25;;;;;;;5.47;3.43;;;;;;;24.28;100.00;100852.66;2065082;28;20187;-67
2022/08/17 04:34:25;;;;;;;6.87;3.33;;;;;;;24.27;100.00;100843.41;2065206;28;20246;-68
2022/08/17 04:35:30;;;;;;;7.07;3.30;;;;;;;24.31;100.00;100848.78;2064368;28;20253;-67
2022/08/17 04:36:31;;;;;;;6.83;3.60;;;;;;;24.22;100.00;100838.53;2064479;28;20295;-68
2022/08/17 04:37:31;;;;;;;7.63;3.72;;;;;;;24.41;100.00;100855.69;2007242;28;1245976;-68
2022/08/17 04:38:38;;;;;;;5.70;3.20;;;;;;;24.22;100.00;100821.53;2055904;28;20242;-68
2022/08/17 04:42:05;;;;;;;5.03;3.10;;;;;;;24.40;100.00;100854.13;2065633;28;20190;-67
2022/08/17 04:42:19;;;;;;;6.60;3.20;;;;;;;24.46;100.00;100844.31;2065546;28;20664;-68
2022/08/17 04:43:22;;;;;;;7.40;3.30;;;;;;;24.53;100.00;100848.66;2065501;28;20190;-68
2022/08/17 04:44:22;;;;;;;6.17;3.50;;;;;;;24.50;100.00;100853.31;2062272;28;20201;-68
2022/08/17 04:45:23;;;;;;;6.27;3.57;;;;;;;24.52;100.00;100861.28;2059803;28;20195;-68
2022/08/17 04:46:27;;;;;;;6.43;3.40;;;;;;;24.54;100.00;100858.69;2064966;28;20190;-68
2022/08/17 04:47:27;;;;;;;4.10;3.00;;;;;;;24.31;100.00;100807.06;2065119;28;20624;-67
2022/08/17 04:48:32;;;;;;;6.03;3.23;;;;;;;24.64;100.00;100855.06;2064900;28;20249;-67
2022/08/17 04:49:33;;;;;;;7.17;3.37;;;;;;;24.52;100.00;100839.38;2056867;28;20191;-68
2022/08/17 04:50:35;;;;;;;5.50;3.17;;;;;;;24.67;100.00;100856.09;2056537;28;20534;-67
2022/08/17 04:51:44;;;;;;;7.43;3.50;;;;;;;24.74;100.00;100855.53;2065626;28;20284;-68
2022/08/17 04:52:45;;;;;;;6.33;3.23;;;;;;;24.81;100.00;100857.78;2071714;28;20173;-68
2022/08/17 04:53:49;;;;;;;7.90;3.53;;;;;;;24.81;100.00;100854.97;2073374;28;20750;-68
2022/08/17 04:54:49;;;;;;;4.97;3.00;;;;;;;24.45;100.00;100808.00;2079878;28;20196;-68
2022/08/17 04:55:52;;;;;;;6.90;3.20;;;;;;;24.35;100.00;100781.28;2065752;28;20194;-67
2022/08/17 04:56:52;;;;;;;5.57;3.03;;;;;;;24.76;100.00;100836.69;2065099;28;20281;-68
2022/08/17 04:57:53;;;;;;;5.33;3.30;;;;;;;24.46;100.00;100798.22;2073038;28;20197;-68
2022/08/17 04:58:56;;;;;;;6.00;3.50;;;;;;;24.68;100.00;100832.13;2070732;28;20212;-68
2022/08/17 04:59:57;;;;;;;6.27;3.40;;;;;;;25.02;100.00;100864.63;2067201;28;20676;-68
2022/08/17 05:00:58;;;;;;;5.63;3.17;;;;;;;25.08;100.00;100856.84;2072935;28;20197;-68